F/V Anna Mamm Mari — FOHD — position and weather

sailwx.info

Track history (hours):
 
Tides and Currents Weather Stations Pressure Air Temp Water Temp Dewpoint Dewpoint Depression Visibility Wind Speed Wind Dir Waves Ship Positions

F/V Anna Mamm Mari

Last reported at 2015-Jul-05 06:32 UTC. Time now 2015-Jul-05 09:32 UTC.
Position N 46°02' W 001°37'.

Length 17 m.

Type: Fishing. MMSI: 228393000.

Date/timePositionNaut miles runAvg speedWind from/ knotsBaromVisibWave heightAir tempDewpointWater temp
2015-Jul-05 06:32N 46°02' W 001°37'3 1.8
2015-Jul-05 05:07N 46°02' W 001°33'0 0.4
2015-Jul-05 04:33N 46°02' W 001°33'1 1.0
2015-Jul-05 03:33N 46°03' W 001°35'0 0.3
2015-Jul-05 02:32N 46°03' W 001°35'0 0.0
2015-Jul-05 00:14N 46°03' W 001°35'0 0.2
2015-Jul-04 23:33N 46°03' W 001°35'0 0.0
2015-Jul-04 22:33N 46°03' W 001°35'0 0.0
2015-Jul-04 21:27N 46°03' W 001°35'0 0.0
2015-Jul-04 20:33N 46°03' W 001°35'0 0.0
2015-Jul-04 19:33N 46°03' W 001°35'0 0.0
2015-Jul-04 18:33N 46°03' W 001°35'0 0.1
2015-Jul-04 17:09N 46°03' W 001°35'1 2.1
2015-Jul-04 16:31N 46°01' W 001°35'1 1.2
2015-Jul-04 15:26N 46°02' W 001°37'11 4.9
2015-Jul-04 13:15N 46°13' W 001°37'1 1.1
2015-Jul-04 12:32N 46°13' W 001°38'1 0.7
2015-Jul-04 11:34N 46°12' W 001°38'0 0.3
2015-Jul-04 10:31N 46°12' W 001°39'4 4.4
2015-Jul-04 09:33N 46°09' W 001°43'1 0.7
2015-Jul-04 08:09N 46°09' W 001°41'1 1.9
2015-Jul-04 07:33N 46°08' W 001°42'1 1.2
2015-Jul-04 06:22N 46°08' W 001°40'2 0.8
2015-Jul-04 04:25N 46°09' W 001°42'0 0.3
2015-Jul-04 03:25N 46°10' W 001°43'1 0.9
2015-Jul-04 02:32N 46°10' W 001°42'0 0.0
2015-Jul-04 01:33N 46°10' W 001°42'0 0.0
2015-Jul-04 00:33N 46°10' W 001°42'0 0.1
2015-Jul-03 23:33N 46°10' W 001°42'0 0.2
2015-Jul-03 22:33N 46°10' W 001°42'0 0.1
2015-Jul-03 21:26N 46°10' W 001°42'0 0.0
2015-Jul-03 20:30N 46°10' W 001°42'0 0.1
2015-Jul-03 19:33N 46°10' W 001°42'0 0.0
2015-Jul-03 18:33N 46°10' W 001°42'0 0.1
2015-Jul-03 16:33N 46°10' W 001°42'2 2.0
2015-Jul-03 15:33N 46°08' W 001°43'1 1.2
2015-Jul-03 14:31N 46°08' W 001°42'3 0.4
2015-Jul-03 08:04N 46°11' W 001°43'1 2.6
2015-Jul-03 07:33N 46°10' W 001°42'2 0.5
2015-Jul-03 04:05N 46°11' W 001°42'1 2.2
2015-Jul-03 03:33N 46°11' W 001°41'0 0.1
2015-Jul-03 01:33N 46°11' W 001°41'0 0.0
2015-Jul-03 00:33N 46°11' W 001°41'0 0.1
2015-Jul-02 23:33N 46°11' W 001°41'0 0.1
2015-Jul-02 22:33N 46°11' W 001°41'0 0.0
2015-Jul-02 21:34N 46°11' W 001°41'0 0.2
2015-Jul-02 20:34N 46°11' W 001°41'0 0.0
2015-Jul-02 19:33N 46°11' W 001°41'0 0.0
2015-Jul-02 18:29N 46°11' W 001°41'3 2.6
2015-Jul-02 17:27N 46°13' W 001°38'0 0.5
2015-Jul-02 16:33N 46°13' W 001°39'0 0.2
2015-Jul-02 15:33N 46°13' W 001°39'0 0.3
2015-Jul-02 14:29N 46°12' W 001°38'6 0.4
2015-Jul-01 23:06N 46°07' W 001°37'8 5.1
2015-Jul-01 21:33N 46°14' W 001°40'8 8.2
2015-Jul-01 20:33N 46°22' W 001°44'8 8.3
2015-Jul-01 19:33N 46°30' W 001°48'0 0.4
2015-Jul-01 18:33N 46°30' W 001°47'0 0.0
2015-Jul-01 17:33N 46°30' W 001°47'1 0.5
2015-Jul-01 16:34N 46°29' W 001°48'9 8.5
2015-Jul-01 15:33N 46°21' W 001°45'13 2.1
2015-Jul-01 09:27N 46°10' W 001°35'1 0.3
2015-Jul-01 07:13N 46°11' W 001°35'2 2.3
2015-Jul-01 06:30N 46°09' W 001°34'2 2.0
2015-Jul-01 05:31N 46°11' W 001°36'1 0.3
2015-Jul-01 03:09N 46°10' W 001°36'0 0.1
2015-Jul-01 02:33N 46°10' W 001°36'0 0.0
2015-Jul-01 01:30N 46°10' W 001°36'0 0.1
2015-Jul-01 00:26N 46°10' W 001°36'0 0.0
2015-Jun-30 23:05N 46°10' W 001°36'0 0.1
2015-Jun-30 22:33N 46°10' W 001°36'0 0.1
2015-Jun-30 21:33N 46°10' W 001°36'0 0.1
2015-Jun-30 20:33N 46°10' W 001°36'0 0.0
2015-Jun-30 19:34N 46°10' W 001°36'0 0.0
2015-Jun-30 18:33N 46°10' W 001°36'0 0.2
2015-Jun-30 17:26N 46°10' W 001°36'2 2.8
2015-Jun-30 16:33N 46°12' W 001°38'1 1.5
2015-Jun-30 15:33N 46°13' W 001°39'0 0.3
2015-Jun-30 14:30N 46°14' W 001°39'5 1.1
2015-Jun-30 09:33N 46°10' W 001°35'1 0.5
2015-Jun-30 08:15N 46°09' W 001°35'2 2.2
2015-Jun-30 07:33N 46°10' W 001°36'4 4.4
2015-Jun-30 06:33N 46°06' W 001°33'0 0.3
2015-Jun-30 05:33N 46°07' W 001°33'3 3.5
2015-Jun-30 04:33N 46°07' W 001°38'0 0.4
2015-Jun-30 03:33N 46°07' W 001°38'1 0.3
2015-Jun-30 01:32N 46°07' W 001°38'0 0.0
2015-Jun-30 00:34N 46°07' W 001°38'0 0.1
2015-Jun-29 23:33N 46°07' W 001°38'0 0.0
2015-Jun-29 22:26N 46°07' W 001°38'0 0.1
2015-Jun-29 21:33N 46°07' W 001°38'0 0.0
2015-Jun-29 20:31N 46°07' W 001°38'0 0.0
2015-Jun-29 17:16N 46°07' W 001°38'0 0.0
2015-Jun-29 16:33N 46°07' W 001°38'0 0.0
2015-Jun-29 15:33N 46°07' W 001°38'1 1.1
2015-Jun-29 14:34N 46°07' W 001°39'4 4.5
2015-Jun-29 13:33N 46°07' W 001°32'1 0.8
2015-Jun-29 12:33N 46°06' W 001°34'0 0.1
2015-Jun-29 11:33N 46°07' W 001°34'0 0.2
2015-Jun-29 10:33N 46°07' W 001°34'1 0.9
2015-Jun-29 09:33N 46°07' W 001°35'3 2.8
2015-Jun-29 08:33N 46°10' W 001°35'0 0.3
2015-Jun-29 07:28N 46°10' W 001°35'0 0.1
2015-Jun-29 06:33N 46°10' W 001°35'0 0.4
2015-Jun-29 05:30N 46°10' W 001°35'0 0.3
2015-Jun-29 04:33N 46°10' W 001°35'3 0.3
2015-Jun-28 18:26N 46°12' W 001°38'2 2.2
2015-Jun-28 17:27N 46°14' W 001°40'0 0.3
2015-Jun-28 16:34N 46°14' W 001°40'1 1.2
2015-Jun-28 15:32N 46°13' W 001°39'1 0.5
2015-Jun-28 14:30N 46°13' W 001°39'7 5.7
2015-Jun-28 13:17N 46°07' W 001°33'0 0.2
2015-Jun-28 12:23N 46°06' W 001°33'0 0.5
2015-Jun-28 11:33N 46°07' W 001°33'0 0.3
2015-Jun-28 10:33N 46°07' W 001°33'4 4.1
2015-Jun-28 09:32N 46°11' W 001°35'0 0.1
2015-Jun-28 07:21N 46°10' W 001°35'1 1.5
2015-Jun-28 06:31N 46°09' W 001°35'1 0.6
2015-Jun-28 05:33N 46°10' W 001°35'1 0.5
2015-Jun-28 04:31N 46°10' W 001°36'4 2.1
2015-Jun-28 02:25N 46°14' W 001°38'7 8.4
2015-Jun-28 01:33N 46°21' W 001°42'8 8.2
2015-Jun-28 00:33N 46°28' W 001°47'2 1.5
2015-Jun-27 23:33N 46°30' W 001°47'0 0.0
2015-Jun-27 22:34N 46°30' W 001°47'0 0.0
2015-Jun-27 21:34N 46°30' W 001°47'0 0.0
2015-Jun-27 20:33N 46°30' W 001°47'0 0.0
2015-Jun-27 19:33N 46°30' W 001°47'0 0.0
2015-Jun-27 18:34N 46°30' W 001°47'0 0.0
2015-Jun-27 17:34N 46°30' W 001°47'0 0.0
2015-Jun-27 16:34N 46°30' W 001°47'0 0.0
2015-Jun-27 15:34N 46°30' W 001°47'1 0.7
2015-Jun-27 14:34N 46°29' W 001°47'9 8.9
2015-Jun-27 13:33N 46°21' W 001°43'9 8.6
2015-Jun-27 12:33N 46°13' W 001°37'4 1.2
2015-Jun-27 09:25N 46°10' W 001°35'1 0.6
2015-Jun-27 08:19N 46°09' W 001°34'3 1.5
2015-Jun-27 06:22N 46°06' W 001°32'0 0.2
2015-Jun-27 05:18N 46°07' W 001°32'0 0.3
2015-Jun-27 04:18N 46°07' W 001°33'0 0.3
2015-Jun-27 03:32N 46°07' W 001°33'6 0.6
2015-Jun-26 17:29N 46°12' W 001°38'2 1.7
2015-Jun-26 16:28N 46°14' W 001°39'1 0.7
2015-Jun-26 15:33N 46°14' W 001°39'1 1.3
2015-Jun-26 14:33N 46°12' W 001°39'1 1.5
2015-Jun-26 13:33N 46°12' W 001°37'3 3.1
2015-Jun-26 12:34N 46°09' W 001°35'0 0.4
2015-Jun-26 11:33N 46°10' W 001°35'1 0.6
2015-Jun-26 10:33N 46°10' W 001°35'0 0.4
2015-Jun-26 09:34N 46°10' W 001°35'2 1.6
2015-Jun-26 08:33N 46°08' W 001°34'2 1.9
2015-Jun-26 07:33N 46°07' W 001°33'0 0.0
2015-Jun-26 06:30N 46°07' W 001°33'1 0.7
2015-Jun-26 05:33N 46°07' W 001°34'1 0.6
2015-Jun-26 04:32N 46°07' W 001°33'3 3.1
2015-Jun-26 03:34N 46°09' W 001°35'0 0.1
2015-Jun-26 02:34N 46°09' W 001°35'0 0.0
2015-Jun-26 01:33N 46°09' W 001°35'0 0.0
2015-Jun-26 00:33N 46°09' W 001°35'0 0.1
2015-Jun-25 23:34N 46°09' W 001°35'0 0.1
2015-Jun-25 21:33N 46°09' W 001°35'0 0.0
2015-Jun-25 15:25N 46°09' W 001°35'0 0.2
2015-Jun-25 14:34N 46°09' W 001°35'1 0.3
2015-Jun-25 12:08N 46°09' W 001°34'1 1.8
2015-Jun-25 11:31N 46°10' W 001°35'0 0.3
2015-Jun-25 10:33N 46°10' W 001°35'1 0.8
2015-Jun-25 09:29N 46°09' W 001°35'3 3.3
2015-Jun-25 08:33N 46°07' W 001°33'0 0.2
2015-Jun-25 07:34N 46°06' W 001°33'0 0.5
2015-Jun-25 06:34N 46°07' W 001°32'  
Track history (hours):
 
Tides and Currents Weather Stations Pressure Air Temp Water Temp Dewpoint Dewpoint Depression Visibility Wind Speed Wind Dir Waves Ship Positions

F/V Anna Mamm Mari

Last reported at 2015-Jul-05 06:32 UTC. Time now 2015-Jul-05 09:32 UTC.
Position N 46°02' W 001°37'.

Length 17 m.

Type: Fishing. MMSI: 228393000.

Date/timePositionNaut miles runAvg speedWind from/ knotsBaromVisibWave heightAir tempDewpointWater temp
2015-Jul-05 06:32N 46°02' W 001°37'3 1.8
2015-Jul-05 05:07N 46°02' W 001°33'0 0.4
2015-Jul-05 04:33N 46°02' W 001°33'1 1.0
2015-Jul-05 03:33N 46°03' W 001°35'0 0.3
2015-Jul-05 02:32N 46°03' W 001°35'0 0.0
2015-Jul-05 00:14N 46°03' W 001°35'0 0.2
2015-Jul-04 23:33N 46°03' W 001°35'0 0.0
2015-Jul-04 22:33N 46°03' W 001°35'0 0.0
2015-Jul-04 21:27N 46°03' W 001°35'0 0.0
2015-Jul-04 20:33N 46°03' W 001°35'0 0.0
2015-Jul-04 19:33N 46°03' W 001°35'0 0.0
2015-Jul-04 18:33N 46°03' W 001°35'0 0.1
2015-Jul-04 17:09N 46°03' W 001°35'1 2.1
2015-Jul-04 16:31N 46°01' W 001°35'1 1.2
2015-Jul-04 15:26N 46°02' W 001°37'11 4.9
2015-Jul-04 13:15N 46°13' W 001°37'1 1.1
2015-Jul-04 12:32N 46°13' W 001°38'1 0.7
2015-Jul-04 11:34N 46°12' W 001°38'0 0.3
2015-Jul-04 10:31N 46°12' W 001°39'4 4.4
2015-Jul-04 09:33N 46°09' W 001°43'1 0.7
2015-Jul-04 08:09N 46°09' W 001°41'1 1.9
2015-Jul-04 07:33N 46°08' W 001°42'1 1.2
2015-Jul-04 06:22N 46°08' W 001°40'2 0.8
2015-Jul-04 04:25N 46°09' W 001°42'0 0.3
2015-Jul-04 03:25N 46°10' W 001°43'1 0.9
2015-Jul-04 02:32N 46°10' W 001°42'0 0.0
2015-Jul-04 01:33N 46°10' W 001°42'0 0.0
2015-Jul-04 00:33N 46°10' W 001°42'0 0.1
2015-Jul-03 23:33N 46°10' W 001°42'0 0.2
2015-Jul-03 22:33N 46°10' W 001°42'0 0.1
2015-Jul-03 21:26N 46°10' W 001°42'0 0.0
2015-Jul-03 20:30N 46°10' W 001°42'0 0.1
2015-Jul-03 19:33N 46°10' W 001°42'0 0.0
2015-Jul-03 18:33N 46°10' W 001°42'0 0.1
2015-Jul-03 16:33N 46°10' W 001°42'2 2.0
2015-Jul-03 15:33N 46°08' W 001°43'1 1.2
2015-Jul-03 14:31N 46°08' W 001°42'3 0.4
2015-Jul-03 08:04N 46°11' W 001°43'1 2.6
2015-Jul-03 07:33N 46°10' W 001°42'2 0.5
2015-Jul-03 04:05N 46°11' W 001°42'1 2.2
2015-Jul-03 03:33N 46°11' W 001°41'0 0.1
2015-Jul-03 01:33N 46°11' W 001°41'0 0.0
2015-Jul-03 00:33N 46°11' W 001°41'0 0.1
2015-Jul-02 23:33N 46°11' W 001°41'0 0.1
2015-Jul-02 22:33N 46°11' W 001°41'0 0.0
2015-Jul-02 21:34N 46°11' W 001°41'0 0.2
2015-Jul-02 20:34N 46°11' W 001°41'0 0.0
2015-Jul-02 19:33N 46°11' W 001°41'0 0.0
2015-Jul-02 18:29N 46°11' W 001°41'3 2.6
2015-Jul-02 17:27N 46°13' W 001°38'0 0.5
2015-Jul-02 16:33N 46°13' W 001°39'0 0.2
2015-Jul-02 15:33N 46°13' W 001°39'0 0.3
2015-Jul-02 14:29N 46°12' W 001°38'6 0.4
2015-Jul-01 23:06N 46°07' W 001°37'8 5.1
2015-Jul-01 21:33N 46°14' W 001°40'8 8.2
2015-Jul-01 20:33N 46°22' W 001°44'8 8.3
2015-Jul-01 19:33N 46°30' W 001°48'0 0.4
2015-Jul-01 18:33N 46°30' W 001°47'0 0.0
2015-Jul-01 17:33N 46°30' W 001°47'1 0.5
2015-Jul-01 16:34N 46°29' W 001°48'9 8.5
2015-Jul-01 15:33N 46°21' W 001°45'13 2.1
2015-Jul-01 09:27N 46°10' W 001°35'1 0.3
2015-Jul-01 07:13N 46°11' W 001°35'2 2.3
2015-Jul-01 06:30N 46°09' W 001°34'2 2.0
2015-Jul-01 05:31N 46°11' W 001°36'1 0.3
2015-Jul-01 03:09N 46°10' W 001°36'0 0.1
2015-Jul-01 02:33N 46°10' W 001°36'0 0.0
2015-Jul-01 01:30N 46°10' W 001°36'0 0.1
2015-Jul-01 00:26N 46°10' W 001°36'0 0.0
2015-Jun-30 23:05N 46°10' W 001°36'0 0.1
2015-Jun-30 22:33N 46°10' W 001°36'0 0.1
2015-Jun-30 21:33N 46°10' W 001°36'0 0.1
2015-Jun-30 20:33N 46°10' W 001°36'0 0.0
2015-Jun-30 19:34N 46°10' W 001°36'0 0.0
2015-Jun-30 18:33N 46°10' W 001°36'0 0.2
2015-Jun-30 17:26N 46°10' W 001°36'2 2.8
2015-Jun-30 16:33N 46°12' W 001°38'1 1.5
2015-Jun-30 15:33N 46°13' W 001°39'0 0.3
2015-Jun-30 14:30N 46°14' W 001°39'5 1.1
2015-Jun-30 09:33N 46°10' W 001°35'1 0.5
2015-Jun-30 08:15N 46°09' W 001°35'2 2.2
2015-Jun-30 07:33N 46°10' W 001°36'4 4.4
2015-Jun-30 06:33N 46°06' W 001°33'0 0.3
2015-Jun-30 05:33N 46°07' W 001°33'3 3.5
2015-Jun-30 04:33N 46°07' W 001°38'0 0.4
2015-Jun-30 03:33N 46°07' W 001°38'1 0.3
2015-Jun-30 01:32N 46°07' W 001°38'0 0.0
2015-Jun-30 00:34N 46°07' W 001°38'0 0.1
2015-Jun-29 23:33N 46°07' W 001°38'0 0.0
2015-Jun-29 22:26N 46°07' W 001°38'0 0.1
2015-Jun-29 21:33N 46°07' W 001°38'0 0.0
2015-Jun-29 20:31N 46°07' W 001°38'0 0.0
2015-Jun-29 17:16N 46°07' W 001°38'0 0.0
2015-Jun-29 16:33N 46°07' W 001°38'0 0.0
2015-Jun-29 15:33N 46°07' W 001°38'1 1.1
2015-Jun-29 14:34N 46°07' W 001°39'4 4.5
2015-Jun-29 13:33N 46°07' W 001°32'1 0.8
2015-Jun-29 12:33N 46°06' W 001°34'0 0.1
2015-Jun-29 11:33N 46°07' W 001°34'0 0.2
2015-Jun-29 10:33N 46°07' W 001°34'1 0.9
2015-Jun-29 09:33N 46°07' W 001°35'3 2.8
2015-Jun-29 08:33N 46°10' W 001°35'0 0.3
2015-Jun-29 07:28N 46°10' W 001°35'0 0.1
2015-Jun-29 06:33N 46°10' W 001°35'0 0.4
2015-Jun-29 05:30N 46°10' W 001°35'0 0.3
2015-Jun-29 04:33N 46°10' W 001°35'3 0.3
2015-Jun-28 18:26N 46°12' W 001°38'2 2.2
2015-Jun-28 17:27N 46°14' W 001°40'0 0.3
2015-Jun-28 16:34N 46°14' W 001°40'1 1.2
2015-Jun-28 15:32N 46°13' W 001°39'1 0.5
2015-Jun-28 14:30N 46°13' W 001°39'7 5.7
2015-Jun-28 13:17N 46°07' W 001°33'0 0.2
2015-Jun-28 12:23N 46°06' W 001°33'0 0.5
2015-Jun-28 11:33N 46°07' W 001°33'0 0.3
2015-Jun-28 10:33N 46°07' W 001°33'4 4.1
2015-Jun-28 09:32N 46°11' W 001°35'0 0.1
2015-Jun-28 07:21N 46°10' W 001°35'1 1.5
2015-Jun-28 06:31N 46°09' W 001°35'1 0.6
2015-Jun-28 05:33N 46°10' W 001°35'1 0.5
2015-Jun-28 04:31N 46°10' W 001°36'4 2.1
2015-Jun-28 02:25N 46°14' W 001°38'7 8.4
2015-Jun-28 01:33N 46°21' W 001°42'8 8.2
2015-Jun-28 00:33N 46°28' W 001°47'2 1.5
2015-Jun-27 23:33N 46°30' W 001°47'0 0.0
2015-Jun-27 22:34N 46°30' W 001°47'0 0.0
2015-Jun-27 21:34N 46°30' W 001°47'0 0.0
2015-Jun-27 20:33N 46°30' W 001°47'0 0.0
2015-Jun-27 19:33N 46°30' W 001°47'0 0.0
2015-Jun-27 18:34N 46°30' W 001°47'0 0.0
2015-Jun-27 17:34N 46°30' W 001°47'0 0.0
2015-Jun-27 16:34N 46°30' W 001°47'0 0.0
2015-Jun-27 15:34N 46°30' W 001°47'1 0.7
2015-Jun-27 14:34N 46°29' W 001°47'9 8.9
2015-Jun-27 13:33N 46°21' W 001°43'9 8.6
2015-Jun-27 12:33N 46°13' W 001°37'4 1.2
2015-Jun-27 09:25N 46°10' W 001°35'1 0.6
2015-Jun-27 08:19N 46°09' W 001°34'3 1.5
2015-Jun-27 06:22N 46°06' W 001°32'0 0.2
2015-Jun-27 05:18N 46°07' W 001°32'0 0.3
2015-Jun-27 04:18N 46°07' W 001°33'0 0.3
2015-Jun-27 03:32N 46°07' W 001°33'6 0.6
2015-Jun-26 17:29N 46°12' W 001°38'2 1.7
2015-Jun-26 16:28N 46°14' W 001°39'1 0.7
2015-Jun-26 15:33N 46°14' W 001°39'1 1.3
2015-Jun-26 14:33N 46°12' W 001°39'1 1.5
2015-Jun-26 13:33N 46°12' W 001°37'3 3.1
2015-Jun-26 12:34N 46°09' W 001°35'0 0.4
2015-Jun-26 11:33N 46°10' W 001°35'1 0.6
2015-Jun-26 10:33N 46°10' W 001°35'0 0.4
2015-Jun-26 09:34N 46°10' W 001°35'2 1.6
2015-Jun-26 08:33N 46°08' W 001°34'2 1.9
2015-Jun-26 07:33N 46°07' W 001°33'0 0.0
2015-Jun-26 06:30N 46°07' W 001°33'1 0.7
2015-Jun-26 05:33N 46°07' W 001°34'1 0.6
2015-Jun-26 04:32N 46°07' W 001°33'3 3.1
2015-Jun-26 03:34N 46°09' W 001°35'0 0.1
2015-Jun-26 02:34N 46°09' W 001°35'0 0.0
2015-Jun-26 01:33N 46°09' W 001°35'0 0.0
2015-Jun-26 00:33N 46°09' W 001°35'0 0.1
2015-Jun-25 23:34N 46°09' W 001°35'0 0.1
2015-Jun-25 21:33N 46°09' W 001°35'0 0.0
2015-Jun-25 15:25N 46°09' W 001°35'0 0.2
2015-Jun-25 14:34N 46°09' W 001°35'1 0.3
2015-Jun-25 12:08N 46°09' W 001°34'1 1.8
2015-Jun-25 11:31N 46°10' W 001°35'0 0.3
2015-Jun-25 10:33N 46°10' W 001°35'1 0.8
2015-Jun-25 09:29N 46°09' W 001°35'3 3.3
2015-Jun-25 08:33N 46°07' W 001°33'0 0.2
2015-Jun-25 07:34N 46°06' W 001°33'0 0.5
2015-Jun-25 06:34N 46°07' W 001°32'  

Dump ship's entire track history